createdAt,value
2023-05-07T00:04:01.149Z,3.03
2023-05-07T00:09:04.536Z,2.95
2023-05-07T00:14:06.234Z,3.13
2023-05-07T00:19:08.131Z,2.30
2023-05-07T00:24:09.765Z,2.58
2023-05-07T00:29:11.413Z,2.70
2023-05-07T00:34:13.053Z,2.75
2023-05-07T00:39:15.026Z,2.60
2023-05-07T00:44:16.802Z,2.30
2023-05-07T00:49:19.592Z,3.00
2023-05-07T00:54:22.669Z,2.78
2023-05-07T00:59:24.730Z,3.08
2023-05-07T01:04:27.822Z,2.63
2023-05-07T01:09:30.252Z,2.78
2023-05-07T01:14:34.050Z,3.38
2023-05-07T01:19:36.156Z,4.03
2023-05-07T01:24:39.046Z,3.45
2023-05-07T01:29:42.737Z,3.58
2023-05-07T01:34:47.423Z,3.05
2023-05-07T01:39:49.553Z,3.35
2023-05-07T01:44:52.555Z,2.90
2023-05-07T01:49:54.217Z,3.28
2023-05-07T01:54:56.035Z,3.60
2023-05-07T01:59:58.112Z,3.17
2023-05-07T02:05:00.431Z,4.07
2023-05-07T02:10:02.779Z,3.53
2023-05-07T02:15:05.033Z,4.13
2023-05-07T02:20:14.121Z,4.32
2023-05-07T02:25:16.907Z,3.83
2023-05-07T02:30:18.903Z,3.92
2023-05-07T02:35:20.596Z,3.50
2023-05-07T02:40:22.347Z,4.20
2023-05-07T02:45:24.241Z,3.60
2023-05-07T02:50:28.418Z,4.00
2023-05-07T02:55:32.357Z,3.88
2023-05-07T03:00:34.702Z,3.90
2023-05-07T03:05:48.742Z,4.35
2023-05-07T03:10:50.687Z,4.60
2023-05-07T03:15:52.664Z,4.30
2023-05-07T03:20:54.677Z,5.15
2023-05-07T03:25:56.956Z,3.90
2023-05-07T03:30:58.964Z,5.10
2023-05-07T03:36:00.998Z,5.32
2023-05-07T03:41:03.897Z,5.80
2023-05-07T03:46:06.097Z,5.22
2023-05-07T03:51:07.952Z,6.75
2023-05-07T03:56:09.827Z,8.05
2023-05-07T04:01:14.830Z,7.80
2023-05-07T04:06:18.413Z,8.77
2023-05-07T04:11:22.872Z,10.65
2023-05-07T04:16:24.947Z,10.98
2023-05-07T04:21:27.436Z,11.75
2023-05-07T04:26:30.454Z,11.68
2023-05-07T04:31:32.875Z,11.73
2023-05-07T04:36:35.094Z,11.45
2023-05-07T04:41:41.227Z,12.45
2023-05-07T04:46:43.961Z,14.27
2023-05-07T04:51:46.057Z,15.32
2023-05-07T04:56:50.538Z,20.25
2023-05-07T05:01:53.120Z,18.33
2023-05-07T05:06:55.284Z,18.55
2023-05-07T05:11:57.128Z,22.13
2023-05-07T05:16:59.083Z,19.45
2023-05-07T05:22:02.145Z,20.83
2023-05-07T05:27:05.333Z,22.85
2023-05-07T05:32:07.439Z,21.92
2023-05-07T05:37:10.285Z,20.17
2023-05-07T05:42:12.220Z,21.98
2023-05-07T05:47:14.975Z,21.98
2023-05-07T05:52:18.167Z,21.13
2023-05-07T05:57:21.333Z,21.88
2023-05-07T06:02:23.299Z,20.05
2023-05-07T06:07:26.224Z,22.70
2023-05-07T06:12:28.623Z,20.98
2023-05-07T06:17:30.375Z,21.58
2023-05-07T06:22:32.406Z,19.75
2023-05-07T06:27:34.517Z,18.65
2023-05-07T06:32:37.705Z,19.88
2023-05-07T06:37:40.598Z,18.15
2023-05-07T06:42:43.168Z,17.88
2023-05-07T06:48:17.119Z,18.73
2023-05-07T06:53:30.296Z,17.95
2023-05-07T06:58:33.955Z,18.73
2023-05-07T07:03:36.015Z,16.90
2023-05-07T07:08:39.715Z,17.80
2023-05-07T07:13:43.812Z,16.02
2023-05-07T07:18:46.000Z,15.70
2023-05-07T07:23:47.665Z,16.23
2023-05-07T07:28:50.044Z,15.52
2023-05-07T07:33:55.268Z,16.35
2023-05-07T07:38:57.080Z,15.52
2023-05-07T07:43:59.460Z,15.38
2023-05-07T07:49:01.278Z,15.73
2023-05-07T07:54:03.907Z,14.25
2023-05-07T07:59:07.611Z,14.55
2023-05-07T08:04:13.115Z,14.25
2023-05-07T08:09:17.132Z,15.25
2023-05-07T08:14:20.825Z,14.38
2023-05-07T08:19:23.960Z,14.25
2023-05-07T08:24:26.340Z,13.10
2023-05-07T08:29:28.712Z,11.43
2023-05-07T08:34:30.409Z,12.18
2023-05-07T08:39:34.076Z,10.93
2023-05-07T08:44:36.323Z,10.82
2023-05-07T08:49:38.189Z,10.63
2023-05-07T08:54:42.601Z,12.10
2023-05-07T08:59:45.595Z,9.70
2023-05-07T09:04:47.403Z,8.07
2023-05-07T09:09:49.394Z,10.73
2023-05-07T09:14:51.198Z,10.20
2023-05-07T09:19:54.455Z,10.02
2023-05-07T09:24:56.227Z,9.20
2023-05-07T09:30:04.983Z,10.23
2023-05-07T09:35:15.290Z,9.55
2023-05-07T09:40:25.198Z,9.18
2023-05-07T09:45:29.612Z,8.00
2023-05-07T09:50:50.922Z,9.27
2023-05-07T09:55:56.628Z,9.30
2023-05-07T10:00:58.814Z,8.68
2023-05-07T10:06:02.013Z,9.27
2023-05-07T10:11:05.989Z,9.57
2023-05-07T10:16:08.560Z,10.80
2023-05-07T10:21:22.508Z,8.35
2023-05-07T10:32:10.082Z,8.52
2023-05-07T10:37:13.857Z,7.78
2023-05-07T10:42:17.028Z,7.40
2023-05-07T10:47:24.853Z,8.23
2023-05-07T10:52:31.343Z,8.15
2023-05-07T10:57:39.642Z,8.00
2023-05-07T11:03:10.630Z,7.05
2023-05-07T11:08:18.415Z,8.07
2023-05-07T11:13:43.203Z,6.30
2023-05-07T11:18:49.815Z,6.25
2023-05-07T11:29:12.835Z,6.13
2023-05-07T11:34:21.469Z,6.00
2023-05-07T11:39:32.624Z,6.72
2023-05-07T11:44:47.198Z,6.78
2023-05-07T11:49:51.338Z,5.90
2023-05-07T11:54:58.274Z,5.68
2023-05-07T12:00:02.786Z,6.00
2023-05-07T12:05:14.478Z,5.28
2023-05-07T12:10:16.584Z,4.80
2023-05-07T12:15:18.697Z,4.40
2023-05-07T12:20:20.447Z,4.50
2023-05-07T12:25:22.115Z,4.00
2023-05-07T12:30:23.718Z,3.72
2023-05-07T12:35:32.822Z,3.88
2023-05-07T12:40:41.977Z,3.58
2023-05-07T12:45:43.827Z,4.28
2023-05-07T12:50:45.656Z,3.40
2023-05-07T12:55:49.357Z,3.35
2023-05-07T13:00:52.168Z,3.45
2023-05-07T13:05:58.937Z,3.10
2023-05-07T13:11:04.551Z,3.33
2023-05-07T13:16:09.689Z,3.00
2023-05-07T13:21:14.334Z,3.30
2023-05-07T13:26:26.285Z,3.03
2023-05-07T13:31:28.937Z,3.22
2023-05-07T13:36:33.965Z,3.55
2023-05-07T13:41:35.612Z,3.15
2023-05-07T13:46:37.439Z,3.00
2023-05-07T13:51:39.327Z,3.20
2023-05-07T13:56:41.210Z,3.20
2023-05-07T14:01:42.878Z,2.70
2023-05-07T14:06:44.729Z,2.90
2023-05-07T14:11:48.522Z,2.58
2023-05-07T14:16:51.120Z,3.00
2023-05-07T14:21:53.131Z,2.40
2023-05-07T14:26:54.876Z,2.72
2023-05-07T14:31:56.622Z,2.30
2023-05-07T14:37:01.371Z,2.40
2023-05-07T14:42:03.164Z,2.28
2023-05-07T14:47:04.881Z,2.10
2023-05-07T14:52:07.207Z,2.33
2023-05-07T14:57:10.821Z,2.00
2023-05-07T15:02:13.209Z,2.25
2023-05-07T15:07:16.299Z,2.00
2023-05-07T15:12:18.269Z,2.03
2023-05-07T15:17:19.887Z,2.00
2023-05-07T15:22:22.745Z,2.15
2023-05-07T15:27:24.774Z,2.10
2023-05-07T15:32:26.729Z,2.38
2023-05-07T15:37:28.405Z,2.42
2023-05-07T15:42:30.054Z,2.30
2023-05-07T15:47:34.097Z,2.30
2023-05-07T15:52:35.981Z,2.67
2023-05-07T15:57:37.630Z,2.65
2023-05-07T16:02:39.871Z,2.80
2023-05-07T16:07:44.152Z,2.47
2023-05-07T16:12:45.824Z,2.67
2023-05-07T16:17:51.856Z,3.15
2023-05-07T16:22:53.617Z,2.85
2023-05-07T16:27:56.514Z,2.80
2023-05-07T16:32:58.245Z,2.70
2023-05-07T16:38:00.316Z,3.13
2023-05-07T16:43:03.868Z,3.20
2023-05-07T16:48:06.033Z,2.70
2023-05-07T16:53:07.763Z,3.25
2023-05-07T16:58:11.003Z,3.17
2023-05-07T17:03:13.010Z,3.03
2023-05-07T17:08:15.181Z,3.47
2023-05-07T17:13:17.046Z,4.45
2023-05-07T17:18:18.924Z,4.25
2023-05-07T17:23:20.736Z,5.13
2023-05-07T17:28:22.614Z,4.70
2023-05-07T17:33:24.280Z,4.43
2023-05-07T17:38:26.266Z,4.45
2023-05-07T17:43:27.974Z,4.47
2023-05-07T17:48:29.615Z,5.63
2023-05-07T17:53:31.299Z,5.90
2023-05-07T17:58:35.011Z,5.75
2023-05-07T18:03:40.497Z,5.30
2023-05-07T18:08:42.187Z,6.75
2023-05-07T18:13:43.787Z,6.75
2023-05-07T18:18:46.896Z,7.95
2023-05-07T18:23:49.608Z,7.80
2023-05-07T18:28:51.416Z,8.95
2023-05-07T18:33:54.316Z,10.60
2023-05-07T18:38:55.992Z,9.82
2023-05-07T18:43:57.945Z,10.35
2023-05-07T18:48:59.596Z,9.65
2023-05-07T18:54:04.079Z,11.45
2023-05-07T18:59:05.675Z,11.93
2023-05-07T19:04:07.489Z,13.40
2023-05-07T19:09:09.228Z,13.82
2023-05-07T19:14:11.102Z,13.25
2023-05-07T19:19:12.897Z,12.18
2023-05-07T19:24:14.610Z,12.73
2023-05-07T19:29:18.136Z,13.32
2023-05-07T19:34:20.261Z,15.18
2023-05-07T19:39:21.963Z,16.10
2023-05-07T19:44:23.600Z,16.92
2023-05-07T19:49:25.405Z,16.50
2023-05-07T19:54:28.903Z,16.23
2023-05-07T19:59:30.599Z,17.33
2023-05-07T20:04:37.274Z,17.45
2023-05-07T20:09:38.895Z,16.95
2023-05-07T20:14:40.676Z,17.67
2023-05-07T20:19:42.273Z,17.13
2023-05-07T20:24:43.884Z,17.23
2023-05-07T20:29:46.852Z,15.88
2023-05-07T20:34:48.496Z,16.40
2023-05-07T20:39:50.221Z,15.15
2023-05-07T20:44:51.923Z,15.45
2023-05-07T20:49:54.771Z,15.02
2023-05-07T20:54:56.564Z,14.65
2023-05-07T20:59:58.182Z,14.15
2023-05-07T21:04:59.781Z,13.95
2023-05-07T21:10:01.587Z,14.02
2023-05-07T21:15:03.806Z,13.05
2023-05-07T21:20:06.076Z,13.05
2023-05-07T21:25:08.109Z,12.38
2023-05-07T21:30:10.753Z,13.00
2023-05-07T21:35:13.177Z,13.45
2023-05-07T21:40:15.287Z,14.98
2023-05-07T21:45:17.235Z,13.60
2023-05-07T21:50:19.320Z,13.30
2023-05-07T21:55:21.131Z,13.20
2023-05-07T22:00:23.786Z,12.10
2023-05-07T22:05:25.418Z,12.48
2023-05-07T22:10:27.072Z,10.93
2023-05-07T22:15:28.680Z,11.70
2023-05-07T22:20:30.335Z,11.50
2023-05-07T22:25:34.587Z,9.95
2023-05-07T22:30:36.212Z,9.57
2023-05-07T22:35:37.952Z,9.05
2023-05-07T22:40:39.618Z,9.25
2023-05-07T22:45:41.789Z,8.93
2023-05-07T22:50:43.395Z,8.10
2023-05-07T22:55:45.016Z,8.38
2023-05-07T23:00:47.499Z,8.60
2023-05-07T23:05:49.305Z,8.70
2023-05-07T23:10:50.910Z,10.13
2023-05-07T23:15:52.548Z,8.45
2023-05-07T23:20:54.117Z,10.68
2023-05-07T23:25:55.948Z,10.13
2023-05-07T23:30:57.657Z,9.95
2023-05-07T23:36:04.594Z,11.35
2023-05-07T23:41:06.322Z,10.68
2023-05-07T23:46:07.953Z,9.65
2023-05-07T23:51:09.563Z,9.43
2023-05-07T23:56:11.318Z,9.43
